sensor_id;sensor_type;location;lat;lon;timestamp;pressure;altitude;pressure_sealevel;temperature;humidity
64683;BME280;51107;47.652;19.016;2022-12-29T00:00:10;100586.63;;;-1.18;100.00
64683;BME280;51107;47.652;19.016;2022-12-29T00:02:39;100593.63;;;-1.23;100.00
64683;BME280;51107;47.652;19.016;2022-12-29T00:05:08;100594.25;;;-1.16;100.00
64683;BME280;51107;47.652;19.016;2022-12-29T00:07:36;100606.84;;;-1.12;100.00
64683;BME280;51107;47.652;19.016;2022-12-29T00:10:05;100593.75;;;-1.26;100.00
64683;BME280;51107;47.652;19.016;2022-12-29T00:12:34;100602.34;;;-1.29;100.00
64683;BME280;51107;47.652;19.016;2022-12-29T00:15:20;100591.19;;;-1.26;100.00
64683;BME280;51107;47.652;19.016;2022-12-29T00:18:07;100597.13;;;-1.26;100.00
64683;BME280;51107;47.652;19.016;2022-12-29T00:20:36;100590.25;;;-1.24;100.00
64683;BME280;51107;47.652;19.016;2022-12-29T00:23:24;100598.78;;;-1.25;100.00
64683;BME280;51107;47.652;19.016;2022-12-29T00:26:13;100593.88;;;-1.31;100.00
64683;BME280;51107;47.652;19.016;2022-12-29T00:29:07;100593.75;;;-1.26;100.00
64683;BME280;51107;47.652;19.016;2022-12-29T00:31:55;100585.34;;;-1.30;100.00
64683;BME280;51107;47.652;19.016;2022-12-29T00:34:43;100596.91;;;-1.45;100.00
64683;BME280;51107;47.652;19.016;2022-12-29T00:37:30;100590.16;;;-1.46;100.00
64683;BME280;51107;47.652;19.016;2022-12-29T00:40:17;100579.03;;;-1.45;100.00
64683;BME280;51107;47.652;19.016;2022-12-29T00:43:03;100582.28;;;-1.40;100.00
64683;BME280;51107;47.652;19.016;2022-12-29T00:45:51;100587.25;;;-1.37;100.00
64683;BME280;51107;47.652;19.016;2022-12-29T00:48:19;100582.87;;;-1.33;100.00
64683;BME280;51107;47.652;19.016;2022-12-29T00:51:07;100590.72;;;-1.38;100.00
64683;BME280;51107;47.652;19.016;2022-12-29T00:53:35;100580.41;;;-1.34;100.00
64683;BME280;51107;47.652;19.016;2022-12-29T00:56:04;100588.88;;;-1.34;100.00
64683;BME280;51107;47.652;19.016;2022-12-29T00:58:32;100592.00;;;-1.26;100.00
64683;BME280;51107;47.652;19.016;2022-12-29T01:01:06;100587.06;;;-1.30;100.00
64683;BME280;51107;47.652;19.016;2022-12-29T01:03:36;100590.28;;;-1.25;100.00
64683;BME280;51107;47.652;19.016;2022-12-29T01:06:07;100581.94;;;-1.30;100.00
64683;BME280;51107;47.652;19.016;2022-12-29T01:08:38;100583.72;;;-1.32;100.00
64683;BME280;51107;47.652;19.016;2022-12-29T01:11:08;100578.28;;;-1.23;100.00
64683;BME280;51107;47.652;19.016;2022-12-29T01:13:37;100585.22;;;-1.27;100.00
64683;BME280;51107;47.652;19.016;2022-12-29T01:16:06;100591.19;;;-1.26;100.00
64683;BME280;51107;47.652;19.016;2022-12-29T01:18:35;100593.22;;;-1.36;100.00
64683;BME280;51107;47.652;19.016;2022-12-29T01:21:05;100587.50;;;-1.43;100.00
64683;BME280;51107;47.652;19.016;2022-12-29T01:23:33;100591.03;;;-1.47;100.00
64683;BME280;51107;47.652;19.016;2022-12-29T01:26:12;100583.91;;;-1.62;100.00
64683;BME280;51107;47.652;19.016;2022-12-29T01:28:41;100589.78;;;-1.60;100.00
64683;BME280;51107;47.652;19.016;2022-12-29T01:31:10;100594.72;;;-1.54;100.00
64683;BME280;51107;47.652;19.016;2022-12-29T01:33:39;100598.97;;;-1.55;100.00
64683;BME280;51107;47.652;19.016;2022-12-29T01:36:14;100592.87;;;-1.50;100.00
64683;BME280;51107;47.652;19.016;2022-12-29T01:38:43;100593.19;;;-1.60;100.00
64683;BME280;51107;47.652;19.016;2022-12-29T01:41:13;100601.69;;;-1.59;100.00
64683;BME280;51107;47.652;19.016;2022-12-29T01:43:49;100589.47;;;-1.51;100.00
64683;BME280;51107;47.652;19.016;2022-12-29T01:46:49;100582.50;;;-1.46;100.00
64683;BME280;51107;47.652;19.016;2022-12-29T01:49:17;100587.81;;;-1.52;100.00
64683;BME280;51107;47.652;19.016;2022-12-29T01:51:57;100582.94;;;-1.58;100.00
64683;BME280;51107;47.652;19.016;2022-12-29T01:57:08;100571.22;;;-1.65;100.00
64683;BME280;51107;47.652;19.016;2022-12-29T01:59:41;100573.41;;;-1.55;100.00
64683;BME280;51107;47.652;19.016;2022-12-29T02:02:11;100571.72;;;-1.54;100.00
64683;BME280;51107;47.652;19.016;2022-12-29T02:04:41;100561.75;;;-1.62;100.00
64683;BME280;51107;47.652;19.016;2022-12-29T02:07:19;100562.91;;;-1.71;100.00
64683;BME280;51107;47.652;19.016;2022-12-29T02:09:51;100555.37;;;-1.75;100.00
64683;BME280;51107;47.652;19.016;2022-12-29T02:12:21;100553.69;;;-1.75;100.00
64683;BME280;51107;47.652;19.016;2022-12-29T02:14:55;100549.09;;;-1.65;100.00
64683;BME280;51107;47.652;19.016;2022-12-29T02:32:02;100541.00;;;-1.78;100.00
64683;BME280;51107;47.652;19.016;2022-12-29T02:34:47;100542.56;;;-1.74;100.00
64683;BME280;51107;47.652;19.016;2022-12-29T02:37:34;100539.22;;;-1.76;100.00
64683;BME280;51107;47.652;19.016;2022-12-29T02:40:20;100546.66;;;-1.69;100.00
64683;BME280;51107;47.652;19.016;2022-12-29T02:45:33;100553.72;;;-1.51;100.00
64683;BME280;51107;47.652;19.016;2022-12-29T02:48:28;100539.00;;;-1.44;100.00
64683;BME280;51107;47.652;19.016;2022-12-29T02:51:02;100550.09;;;-1.45;100.00
64683;BME280;51107;47.652;19.016;2022-12-29T02:53:33;100545.03;;;-1.47;100.00
64683;BME280;51107;47.652;19.016;2022-12-29T02:56:22;100528.41;;;-1.59;100.00
64683;BME280;51107;47.652;19.016;2022-12-29T02:58:50;100540.44;;;-1.61;100.00
64683;BME280;51107;47.652;19.016;2022-12-29T03:01:45;100531.81;;;-1.58;100.00
64683;BME280;51107;47.652;19.016;2022-12-29T03:04:50;100535.03;;;-1.53;100.00
64683;BME280;51107;47.652;19.016;2022-12-29T03:10:30;100526.59;;;-1.55;100.00
64683;BME280;51107;47.652;19.016;2022-12-29T03:13:38;100531.03;;;-1.60;100.00
64683;BME280;51107;47.652;19.016;2022-12-29T03:16:45;100526.16;;;-1.66;100.00
64683;BME280;51107;47.652;19.016;2022-12-29T03:19:30;100530.56;;;-1.72;100.00
64683;BME280;51107;47.652;19.016;2022-12-29T03:22:25;100533.19;;;-1.73;100.00
64683;BME280;51107;47.652;19.016;2022-12-29T03:25:45;100532.88;;;-1.64;100.00
64683;BME280;51107;47.652;19.016;2022-12-29T03:27:51;100535.31;;;-1.61;100.00
64683;BME280;51107;47.652;19.016;2022-12-29T03:30:21;100515.13;;;-1.68;100.00
64683;BME280;51107;47.652;19.016;2022-12-29T03:32:54;100520.69;;;-1.57;100.00
64683;BME280;51107;47.652;19.016;2022-12-29T03:35:27;100524.91;;;-1.56;100.00
64683;BME280;51107;47.652;19.016;2022-12-29T03:38:05;100508.22;;;-1.90;100.00
64683;BME280;51107;47.652;19.016;2022-12-29T03:40:42;100512.06;;;-1.78;100.00
64683;BME280;51107;47.652;19.016;2022-12-29T03:43:12;100519.38;;;-1.67;100.00
64683;BME280;51107;47.652;19.016;2022-12-29T03:45:41;100515.37;;;-1.75;100.00
64683;BME280;51107;47.652;19.016;2022-12-29T03:48:10;100503.47;;;-1.76;100.00
64683;BME280;51107;47.652;19.016;2022-12-29T03:50:38;100498.13;;;-1.69;100.00
64683;BME280;51107;47.652;19.016;2022-12-29T03:53:07;100517.81;;;-1.72;100.00
64683;BME280;51107;47.652;19.016;2022-12-29T03:55:35;100508.69;;;-1.79;100.00
64683;BME280;51107;47.652;19.016;2022-12-29T03:58:04;100515.09;;;-1.92;100.00
64683;BME280;51107;47.652;19.016;2022-12-29T04:00:33;100504.72;;;-2.13;100.00
64683;BME280;51107;47.652;19.016;2022-12-29T04:03:02;100497.69;;;-2.06;100.00
64683;BME280;51107;47.652;19.016;2022-12-29T04:05:30;100491.81;;;-1.83;100.00
64683;BME280;51107;47.652;19.016;2022-12-29T04:07:59;100498.37;;;-1.76;100.00
64683;BME280;51107;47.652;19.016;2022-12-29T04:10:28;100500.53;;;-1.89;100.00
64683;BME280;51107;47.652;19.016;2022-12-29T04:12:57;100500.47;;;-1.87;100.00
64683;BME280;51107;47.652;19.016;2022-12-29T04:15:26;100506.22;;;-1.82;100.00
64683;BME280;51107;47.652;19.016;2022-12-29T04:17:54;100494.81;;;-1.72;100.00
64683;BME280;51107;47.652;19.016;2022-12-29T04:20:23;100498.47;;;-2.04;100.00
64683;BME280;51107;47.652;19.016;2022-12-29T04:23:10;100503.38;;;-1.98;100.00
64683;BME280;51107;47.652;19.016;2022-12-29T04:25:38;100500.25;;;-1.81;100.00
64683;BME280;51107;47.652;19.016;2022-12-29T04:28:08;100506.13;;;-1.79;100.00
64683;BME280;51107;47.652;19.016;2022-12-29T04:30:37;100511.31;;;-1.80;100.00
64683;BME280;51107;47.652;19.016;2022-12-29T04:33:05;100508.75;;;-1.80;100.00
64683;BME280;51107;47.652;19.016;2022-12-29T04:35:34;100495.66;;;-1.96;100.00
64683;BME280;51107;47.652;19.016;2022-12-29T04:38:03;100494.97;;;-2.01;100.00
64683;BME280;51107;47.652;19.016;2022-12-29T04:40:32;100500.84;;;-1.98;100.00
64683;BME280;51107;47.652;19.016;2022-12-29T04:43:01;100501.66;;;-1.97;100.00
64683;BME280;51107;47.652;19.016;2022-12-29T04:45:29;100494.06;;;-1.99;100.00
64683;BME280;51107;47.652;19.016;2022-12-29T04:47:58;100510.09;;;-1.95;100.00
64683;BME280;51107;47.652;19.016;2022-12-29T04:50:26;100506.34;;;-1.85;100.00
64683;BME280;51107;47.652;19.016;2022-12-29T04:52:55;100508.69;;;-1.79;100.00
64683;BME280;51107;47.652;19.016;2022-12-29T04:55:23;100520.72;;;-1.82;100.00
64683;BME280;51107;47.652;19.016;2022-12-29T04:57:52;100504.72;;;-1.88;100.00
64683;BME280;51107;47.652;19.016;2022-12-29T05:00:21;100507.91;;;-1.81;100.00
64683;BME280;51107;47.652;19.016;2022-12-29T05:02:49;100508.69;;;-1.79;100.00
64683;BME280;51107;47.652;19.016;2022-12-29T05:05:18;100509.62;;;-1.81;100.00
64683;BME280;51107;47.652;19.016;2022-12-29T05:07:47;100513.78;;;-2.04;100.00
64683;BME280;51107;47.652;19.016;2022-12-29T05:10:16;100506.13;;;-2.04;100.00
64683;BME280;51107;47.652;19.016;2022-12-29T05:12:45;100510.06;;;-1.94;100.00
64683;BME280;51107;47.652;19.016;2022-12-29T05:15:14;100508.59;;;-2.01;100.00
64683;BME280;51107;47.652;19.016;2022-12-29T05:17:43;100505.88;;;-1.96;100.00
64683;BME280;51107;47.652;19.016;2022-12-29T05:20:12;100513.22;;;-1.87;100.00
64683;BME280;51107;47.652;19.016;2022-12-29T05:22:41;100515.00;;;-1.89;100.00
64683;BME280;51107;47.652;19.016;2022-12-29T05:25:10;100507.50;;;-1.94;100.00
64683;BME280;51107;47.652;19.016;2022-12-29T05:27:40;100506.50;;;-1.90;100.00
64683;BME280;51107;47.652;19.016;2022-12-29T05:30:09;100501.75;;;-1.75;100.00
64683;BME280;51107;47.652;19.016;2022-12-29T05:32:38;100509.34;;;-1.74;100.00
64683;BME280;51107;47.652;19.016;2022-12-29T05:35:07;100512.63;;;-1.70;100.00
64683;BME280;51107;47.652;19.016;2022-12-29T05:37:36;100509.81;;;-1.62;100.00
64683;BME280;51107;47.652;19.016;2022-12-29T05:40:05;100506.34;;;-1.61;100.00
64683;BME280;51107;47.652;19.016;2022-12-29T05:42:35;100507.31;;;-1.64;100.00
64683;BME280;51107;47.652;19.016;2022-12-29T05:45:04;100501.22;;;-1.60;100.00
64683;BME280;51107;47.652;19.016;2022-12-29T05:47:35;100503.81;;;-1.61;100.00
64683;BME280;51107;47.652;19.016;2022-12-29T05:50:04;100500.66;;;-1.68;100.00
64683;BME280;51107;47.652;19.016;2022-12-29T05:52:32;100504.78;;;-1.89;100.00
64683;BME280;51107;47.652;19.016;2022-12-29T05:55:01;100497.13;;;-1.89;100.00
64683;BME280;51107;47.652;19.016;2022-12-29T05:57:33;100494.44;;;-1.86;100.00
64683;BME280;51107;47.652;19.016;2022-12-29T06:00:04;100497.91;;;-1.87;100.00
64683;BME280;51107;47.652;19.016;2022-12-29T06:02:41;100497.78;;;-1.84;100.00
64683;BME280;51107;47.652;19.016;2022-12-29T06:05:10;100495.13;;;-1.81;100.00
64683;BME280;51107;47.652;19.016;2022-12-29T06:07:38;100486.69;;;-1.83;100.00
64683;BME280;51107;47.652;19.016;2022-12-29T06:10:07;100489.19;;;-1.81;100.00
64683;BME280;51107;47.652;19.016;2022-12-29T06:12:37;100498.41;;;-1.77;100.00
64683;BME280;51107;47.652;19.016;2022-12-29T06:15:05;100489.31;;;-1.84;100.00
64683;BME280;51107;47.652;19.016;2022-12-29T06:17:34;100497.75;;;-1.82;100.00
64683;BME280;51107;47.652;19.016;2022-12-29T06:20:04;100495.94;;;-1.79;100.00
64683;BME280;51107;47.652;19.016;2022-12-29T06:22:32;100497.69;;;-1.81;100.00
64683;BME280;51107;47.652;19.016;2022-12-29T06:25:01;100506.19;;;-1.80;100.00
64683;BME280;51107;47.652;19.016;2022-12-29T06:27:32;100495.50;;;-1.92;100.00
64683;BME280;51107;47.652;19.016;2022-12-29T06:30:01;100492.75;;;-1.85;100.00
64683;BME280;51107;47.652;19.016;2022-12-29T06:32:29;100480.66;;;-1.80;100.00
64683;BME280;51107;47.652;19.016;2022-12-29T06:35:01;100486.41;;;-1.75;100.00
64683;BME280;51107;47.652;19.016;2022-12-29T06:37:29;100495.13;;;-1.81;100.00
64683;BME280;51107;47.652;19.016;2022-12-29T06:39:57;100493.25;;;-1.76;100.00
64683;BME280;51107;47.652;19.016;2022-12-29T06:42:26;100493.25;;;-1.76;100.00
64683;BME280;51107;47.652;19.016;2022-12-29T06:44:55;100507.66;;;-1.73;100.00
64683;BME280;51107;47.652;19.016;2022-12-29T06:47:26;100505.84;;;-1.71;100.00
64683;BME280;51107;47.652;19.016;2022-12-29T06:49:55;100509.09;;;-1.66;100.00
64683;BME280;51107;47.652;19.016;2022-12-29T06:52:23;100514.03;;;-1.61;100.00
64683;BME280;51107;47.652;19.016;2022-12-29T06:54:52;100511.37;;;-1.58;100.00
64683;BME280;51107;47.652;19.016;2022-12-29T06:57:20;100512.59;;;-1.68;100.00
64683;BME280;51107;47.652;19.016;2022-12-29T06:59:49;100516.13;;;-1.73;100.00
64683;BME280;51107;47.652;19.016;2022-12-29T07:02:17;100518.56;;;-1.69;100.00
64683;BME280;51107;47.652;19.016;2022-12-29T07:04:47;100502.09;;;-1.61;100.00
64683;BME280;51107;47.652;19.016;2022-12-29T07:07:15;100506.03;;;-1.52;100.00
64683;BME280;51107;47.652;19.016;2022-12-29T07:09:45;100523.78;;;-1.47;100.00
64683;BME280;51107;47.652;19.016;2022-12-29T07:12:13;100515.75;;;-1.38;100.00
64683;BME280;51107;47.652;19.016;2022-12-29T07:14:41;100519.38;;;-1.44;100.00
64683;BME280;51107;47.652;19.016;2022-12-29T07:17:10;100521.16;;;-1.46;100.00
64683;BME280;51107;47.652;19.016;2022-12-29T07:19:39;100511.09;;;-1.50;100.00
64683;BME280;51107;47.652;19.016;2022-12-29T07:22:08;100514.13;;;-1.41;100.00
64683;BME280;51107;47.652;19.016;2022-12-29T07:24:37;100508.91;;;-1.61;100.00
64683;BME280;51107;47.652;19.016;2022-12-29T07:27:06;100520.59;;;-1.54;100.00
64683;BME280;51107;47.652;19.016;2022-12-29T07:29:36;100520.22;;;-1.43;100.00
64683;BME280;51107;47.652;19.016;2022-12-29T07:32:04;100522.31;;;-1.31;100.00
64683;BME280;51107;47.652;19.016;2022-12-29T07:34:33;100527.66;;;-1.37;100.00
64683;BME280;51107;47.652;19.016;2022-12-29T07:37:01;100527.59;;;-1.35;100.00
64683;BME280;51107;47.652;19.016;2022-12-29T07:39:29;100529.03;;;-1.28;100.00
64683;BME280;51107;47.652;19.016;2022-12-29T07:41:57;100537.63;;;-1.31;100.00
64683;BME280;51107;47.652;19.016;2022-12-29T07:44:37;100519.41;;;-1.22;100.00
64683;BME280;51107;47.652;19.016;2022-12-29T07:47:05;100532.06;;;-1.17;100.00
64683;BME280;51107;47.652;19.016;2022-12-29T07:49:34;100523.12;;;-1.07;100.00
64683;BME280;51107;47.652;19.016;2022-12-29T07:52:02;100530.47;;;-0.97;100.00
64683;BME280;51107;47.652;19.016;2022-12-29T07:54:31;100530.28;;;-0.71;100.00
64683;BME280;51107;47.652;19.016;2022-12-29T07:57:00;100540.03;;;-0.80;100.00
64683;BME280;51107;47.652;19.016;2022-12-29T07:59:28;100535.66;;;-0.77;100.00
64683;BME280;51107;47.652;19.016;2022-12-29T08:01:56;100545.75;;;-0.74;100.00
64683;BME280;51107;47.652;19.016;2022-12-29T08:04:25;100534.16;;;-0.60;100.00
64683;BME280;51107;47.652;19.016;2022-12-29T08:06:53;100531.66;;;-0.62;100.00
64683;BME280;51107;47.652;19.016;2022-12-29T08:09:22;100532.22;;;-0.55;100.00
64683;BME280;51107;47.652;19.016;2022-12-29T08:11:51;100534.94;;;-0.58;100.00
64683;BME280;51107;47.652;19.016;2022-12-29T08:14:20;100515.78;;;-0.70;100.00
64683;BME280;51107;47.652;19.016;2022-12-29T08:16:48;100533.56;;;-0.67;100.00
64683;BME280;51107;47.652;19.016;2022-12-29T08:19:16;100533.31;;;-0.61;100.00
64683;BME280;51107;47.652;19.016;2022-12-29T08:21:45;100533.31;;;-0.61;100.00
64683;BME280;51107;47.652;19.016;2022-12-29T08:24:14;100524.47;;;-0.52;100.00
64683;BME280;51107;47.652;19.016;2022-12-29T08:26:42;100525.00;;;-0.44;100.00
64683;BME280;51107;47.652;19.016;2022-12-29T08:29:10;100520.97;;;-0.29;100.00
64683;BME280;51107;47.652;19.016;2022-12-29T08:31:38;100516.56;;;-0.25;100.00
64683;BME280;51107;47.652;19.016;2022-12-29T08:34:07;100518.44;;;-0.08;100.00
64683;BME280;51107;47.652;19.016;2022-12-29T08:36:35;100519.09;;;0.37;100.00
64683;BME280;51107;47.652;19.016;2022-12-29T08:39:03;100509.94;;;0.88;99.57
64683;BME280;51107;47.652;19.016;2022-12-29T08:41:32;100506.69;;;1.40;97.31
64683;BME280;51107;47.652;19.016;2022-12-29T08:44:00;100518.87;;;1.72;93.38
64683;BME280;51107;47.652;19.016;2022-12-29T08:46:28;100513.50;;;1.41;90.51
64683;BME280;51107;47.652;19.016;2022-12-29T08:48:57;100514.47;;;2.26;89.26
64683;BME280;51107;47.652;19.016;2022-12-29T08:51:25;100511.69;;;2.63;87.95
64683;BME280;51107;47.652;19.016;2022-12-29T08:53:53;100500.16;;;2.86;86.54
64683;BME280;51107;47.652;19.016;2022-12-29T08:56:22;100510.81;;;2.80;85.55
64683;BME280;51107;47.652;19.016;2022-12-29T08:58:52;100500.47;;;3.28;84.58
64683;BME280;51107;47.652;19.016;2022-12-29T09:01:22;100500.66;;;3.55;82.11
64683;BME280;51107;47.652;19.016;2022-12-29T09:03:51;100494.72;;;3.38;83.10
64683;BME280;51107;47.652;19.016;2022-12-29T09:06:40;100505.56;;;3.60;81.43
64683;BME280;51107;47.652;19.016;2022-12-29T09:09:09;100504.13;;;3.23;82.84
64683;BME280;51107;47.652;19.016;2022-12-29T09:11:38;100491.63;;;3.78;80.97
64683;BME280;51107;47.652;19.016;2022-12-29T09:14:06;100492.81;;;3.72;80.18
64683;BME280;51107;47.652;19.016;2022-12-29T09:16:35;100488.94;;;3.80;78.12
64683;BME280;51107;47.652;19.016;2022-12-29T09:19:04;100486.50;;;4.21;78.45
64683;BME280;51107;47.652;19.016;2022-12-29T09:21:32;100480.25;;;4.11;76.98
64683;BME280;51107;47.652;19.016;2022-12-29T09:24:01;100480.81;;;3.71;77.73
64683;BME280;51107;47.652;19.016;2022-12-29T09:26:29;100475.19;;;3.65;79.24
64683;BME280;51107;47.652;19.016;2022-12-29T09:28:57;100471.47;;;4.28;78.04
64683;BME280;51107;47.652;19.016;2022-12-29T09:31:25;100474.16;;;4.27;76.19
64683;BME280;51107;47.652;19.016;2022-12-29T09:33:54;100474.87;;;4.14;75.70
64683;BME280;51107;47.652;19.016;2022-12-29T09:36:22;100468.06;;;4.42;77.63
64683;BME280;51107;47.652;19.016;2022-12-29T09:38:53;100459.50;;;4.83;74.25
64683;BME280;51107;47.652;19.016;2022-12-29T09:41:38;100467.06;;;4.30;75.79
64683;BME280;51107;47.652;19.016;2022-12-29T09:47:11;100462.16;;;3.97;78.58
64683;BME280;51107;47.652;19.016;2022-12-29T09:49:49;100465.41;;;3.86;76.97
64683;BME280;51107;47.652;19.016;2022-12-29T09:52:22;100451.22;;;4.07;76.34
64683;BME280;51107;47.652;19.016;2022-12-29T09:55:04;100451.84;;;3.97;76.37
64683;BME280;51107;47.652;19.016;2022-12-29T09:57:42;100446.44;;;4.86;76.06
64683;BME280;51107;47.652;19.016;2022-12-29T10:00:18;100443.87;;;5.39;72.47
64683;BME280;51107;47.652;19.016;2022-12-29T10:03:02;100431.06;;;4.98;71.76
64683;BME280;51107;47.652;19.016;2022-12-29T10:05:52;100431.16;;;4.13;74.87
64683;BME280;51107;47.652;19.016;2022-12-29T10:08:28;100419.66;;;5.15;74.19
64683;BME280;51107;47.652;19.016;2022-12-29T10:22:40;100431.44;;;5.19;72.33
64683;BME280;51107;47.652;19.016;2022-12-29T10:25:25;100431.38;;;5.46;72.10
64683;BME280;51107;47.652;19.016;2022-12-29T10:28:01;100432.34;;;5.58;70.60
64683;BME280;51107;47.652;19.016;2022-12-29T10:30:33;100430.69;;;5.57;69.71
64683;BME280;51107;47.652;19.016;2022-12-29T10:33:05;100419.50;;;5.82;68.86
64683;BME280;51107;47.652;19.016;2022-12-29T10:35:39;100423.56;;;5.73;70.77
64683;BME280;51107;47.652;19.016;2022-12-29T10:38:29;100412.91;;;5.65;69.60
64683;BME280;51107;47.652;19.016;2022-12-29T10:41:06;100405.06;;;4.73;71.30
64683;BME280;51107;47.652;19.016;2022-12-29T10:46:23;100413.63;;;5.01;72.51
64683;BME280;51107;47.652;19.016;2022-12-29T10:48:52;100411.78;;;4.20;74.20
64683;BME280;51107;47.652;19.016;2022-12-29T10:51:24;100406.50;;;4.78;73.61
64683;BME280;51107;47.652;19.016;2022-12-29T10:53:58;100409.44;;;4.86;71.54
64683;BME280;51107;47.652;19.016;2022-12-29T10:59:29;100396.94;;;5.20;73.00
64683;BME280;51107;47.652;19.016;2022-12-29T11:04:55;100389.25;;;5.05;74.54
64683;BME280;51107;47.652;19.016;2022-12-29T11:07:28;100396.97;;;5.46;71.65
64683;BME280;51107;47.652;19.016;2022-12-29T11:13:01;100390.25;;;5.69;71.56
64683;BME280;51107;47.652;19.016;2022-12-29T11:15:44;100379.50;;;5.36;71.23
64683;BME280;51107;47.652;19.016;2022-12-29T11:20:46;100381.59;;;5.04;72.47
64683;BME280;51107;47.652;19.016;2022-12-29T11:23:26;100388.91;;;4.97;71.90
64683;BME280;51107;47.652;19.016;2022-12-29T11:26:22;100393.37;;;4.95;73.10
64683;BME280;51107;47.652;19.016;2022-12-29T11:31:46;100373.25;;;4.73;73.50
64683;BME280;51107;47.652;19.016;2022-12-29T11:34:26;100381.09;;;4.44;75.97
64683;BME280;51107;47.652;19.016;2022-12-29T11:37:19;100373.25;;;4.73;74.73
64683;BME280;51107;47.652;19.016;2022-12-29T11:39:55;100367.69;;;4.24;76.68
64683;BME280;51107;47.652;19.016;2022-12-29T11:42:40;100377.41;;;4.34;75.13
64683;BME280;51107;47.652;19.016;2022-12-29T11:45:16;100373.59;;;3.69;77.64
64683;BME280;51107;47.652;19.016;2022-12-29T11:47:52;100365.03;;;3.83;78.07
64683;BME280;51107;47.652;19.016;2022-12-29T11:50:24;100351.78;;;4.03;77.97
64683;BME280;51107;47.652;19.016;2022-12-29T11:53:05;100365.50;;;3.46;79.19
64683;BME280;51107;47.652;19.016;2022-12-29T11:55:36;100373.06;;;3.78;79.70
64683;BME280;51107;47.652;19.016;2022-12-29T11:58:05;100367.62;;;3.83;79.84
64683;BME280;51107;47.652;19.016;2022-12-29T12:00:36;100368.66;;;3.51;80.52
64683;BME280;51107;47.652;19.016;2022-12-29T12:03:17;100373.88;;;3.64;80.62
64683;BME280;51107;47.652;19.016;2022-12-29T12:05:57;100363.41;;;3.67;80.47
64683;BME280;51107;47.652;19.016;2022-12-29T12:11:15;100358.19;;;3.24;81.17
64683;BME280;51107;47.652;19.016;2022-12-29T12:14:14;100344.97;;;2.69;83.79
64683;BME280;51107;47.652;19.016;2022-12-29T12:17:09;100345.28;;;2.79;84.14
64683;BME280;51107;47.652;19.016;2022-12-29T12:25:24;100330.81;;;2.93;84.66
64683;BME280;51107;47.652;19.016;2022-12-29T12:28:30;100330.22;;;3.03;84.38
64683;BME280;51107;47.652;19.016;2022-12-29T12:31:11;100316.84;;;2.97;84.95
64683;BME280;51107;47.652;19.016;2022-12-29T12:33:43;100300.12;;;3.04;84.04
64683;BME280;51107;47.652;19.016;2022-12-29T12:36:46;100303.09;;;2.67;84.80
64683;BME280;51107;47.652;19.016;2022-12-29T12:45:13;100306.47;;;2.98;84.50
64683;BME280;51107;47.652;19.016;2022-12-29T12:53:42;100296.09;;;3.00;84.50
64683;BME280;51107;47.652;19.016;2022-12-29T13:10:12;100305.91;;;2.93;86.11
64683;BME280;51107;47.652;19.016;2022-12-29T13:18:37;100310.81;;;2.67;87.59
64683;BME280;51107;47.652;19.016;2022-12-29T13:23:44;100309.94;;;2.83;87.06
64683;BME280;51107;47.652;19.016;2022-12-29T13:26:43;100301.31;;;2.84;86.68
64683;BME280;51107;47.652;19.016;2022-12-29T13:38:39;100312.34;;;2.70;87.47
64683;BME280;51107;47.652;19.016;2022-12-29T13:41:36;100326.97;;;2.69;87.73
64683;BME280;51107;47.652;19.016;2022-12-29T13:44:30;100318.44;;;2.69;87.79
64683;BME280;51107;47.652;19.016;2022-12-29T13:47:34;100323.50;;;2.70;87.79
64683;BME280;51107;47.652;19.016;2022-12-29T13:50:13;100316.59;;;2.71;87.62
64683;BME280;51107;47.652;19.016;2022-12-29T13:53:19;100332.94;;;2.70;87.43
64683;BME280;51107;47.652;19.016;2022-12-29T13:55:56;100340.81;;;2.67;87.82
64683;BME280;51107;47.652;19.016;2022-12-29T14:03:59;100346.66;;;2.54;89.08
64683;BME280;51107;47.652;19.016;2022-12-29T14:06:32;100335.72;;;2.51;89.85
64683;BME280;51107;47.652;19.016;2022-12-29T14:09:06;100325.94;;;2.42;90.28
64683;BME280;51107;47.652;19.016;2022-12-29T14:12:39;100319.38;;;2.36;90.19
64683;BME280;51107;47.652;19.016;2022-12-29T14:17:44;100312.94;;;2.29;90.53
64683;BME280;51107;47.652;19.016;2022-12-29T14:20:21;100319.97;;;2.25;90.75
64683;BME280;51107;47.652;19.016;2022-12-29T14:34:58;100320.53;;;1.98;91.80
64683;BME280;51107;47.652;19.016;2022-12-29T14:37:31;100324.34;;;1.91;92.17
64683;BME280;51107;47.652;19.016;2022-12-29T14:40:05;100326.41;;;1.84;92.59
64683;BME280;51107;47.652;19.016;2022-12-29T14:42:34;100332.88;;;1.76;93.04
64683;BME280;51107;47.652;19.016;2022-12-29T14:45:27;100351.28;;;1.84;92.56
64683;BME280;51107;47.652;19.016;2022-12-29T14:47:57;100351.22;;;1.68;93.42
64683;BME280;51107;47.652;19.016;2022-12-29T14:50:38;100354.12;;;1.62;93.66
64683;BME280;51107;47.652;19.016;2022-12-29T14:53:44;100357.09;;;1.54;94.35
64683;BME280;51107;47.652;19.016;2022-12-29T14:56:18;100348.41;;;1.57;94.01
64683;BME280;51107;47.652;19.016;2022-12-29T14:58:53;100350.34;;;1.51;94.00
64683;BME280;51107;47.652;19.016;2022-12-29T15:06:50;100361.03;;;1.26;95.30
64683;BME280;51107;47.652;19.016;2022-12-29T15:09:30;100363.00;;;1.21;95.51
64683;BME280;51107;47.652;19.016;2022-12-29T15:12:12;100352.06;;;1.17;94.31
64683;BME280;51107;47.652;19.016;2022-12-29T15:14:52;100359.47;;;1.06;94.88
64683;BME280;51107;47.652;19.016;2022-12-29T15:17:28;100365.94;;;0.96;95.20
64683;BME280;51107;47.652;19.016;2022-12-29T15:19:59;100363.69;;;0.90;95.51
64683;BME280;51107;47.652;19.016;2022-12-29T15:22:30;100365.78;;;0.81;95.92
64683;BME280;51107;47.652;19.016;2022-12-29T15:24:58;100359.81;;;0.81;96.31